Time;durP1;ratioP1;P1;durP2;ratioP2;P2;SDS_P1;SDS_P2;PMS_P1;PMS_P2;Temp;Humidity;BMP_temperature;BMP_pressure;BME280_temperature;BME280_humidity;BME280_pressure;Samples;Min_cycle;Max_cycle;Signal;HPM_P1;HPM_P2
2022/08/10 00:00:55;;;;;;;9.60;2.30;;;;;;;14.82;67.80;101351.13;106104;1274;24353;-72
2022/08/10 00:03:26;;;;;;;10.10;1.90;;;;;;;14.81;67.70;101343.90;106140;1274;22527;-71
2022/08/10 00:05:58;;;;;;;5.80;1.40;;;;;;;14.81;67.99;101344.16;106162;1274;22553;-72
2022/08/10 00:08:29;;;;;;;7.10;1.60;;;;;;;14.81;68.22;101335.73;106097;1273;22940;-72
2022/08/10 00:11:00;;;;;;;7.90;1.70;;;;;;;14.81;68.21;101333.95;106102;1274;22551;-72
2022/08/10 00:13:32;;;;;;;6.80;1.50;;;;;;;14.82;68.33;101339.40;106200;1275;22573;-73
2022/08/10 00:16:04;;;;;;;11.30;2.50;;;;;;;14.82;68.72;101340.40;106157;1275;25324;-73
2022/08/10 00:18:36;;;;;;;9.20;2.00;;;;;;;14.83;68.91;101341.94;106077;1273;25304;-72
2022/08/10 00:21:09;;;;;;;7.10;1.60;;;;;;;14.78;69.10;101344.91;106183;1273;24216;-71
2022/08/10 00:23:40;;;;;;;10.70;2.30;;;;;;;14.71;69.15;101350.34;106242;1275;24261;-71
2022/08/10 00:26:11;;;;;;;12.20;2.50;;;;;;;14.68;69.33;101351.14;106055;1276;22531;-73
2022/08/10 00:28:42;;;;;;;12.80;2.70;;;;;;;14.67;69.73;101352.00;106084;1276;24224;-73
2022/08/10 00:31:13;;;;;;;8.00;2.00;;;;;;;14.67;69.86;101349.23;106142;1274;22547;-72
2022/08/10 00:33:47;;;;;;;9.10;2.40;;;;;;;14.69;70.14;101345.54;106170;1273;25301;-73
2022/08/10 00:36:19;;;;;;;11.80;2.10;;;;;;;14.69;70.14;101344.63;106136;1275;25617;-72
2022/08/10 00:38:50;;;;;;;15.40;2.10;;;;;;;14.69;70.33;101342.95;106055;1275;22556;-72
2022/08/10 00:41:21;;;;;;;13.40;3.30;;;;;;;14.70;70.51;101343.97;105147;1273;1459369;-72
2022/08/10 00:43:52;;;;;;;9.10;2.20;;;;;;;14.71;70.64;101346.05;106018;1275;22876;-73
2022/08/10 00:46:24;;;;;;;12.70;2.60;;;;;;;14.71;70.62;101349.02;106142;1273;24342;-72
2022/08/10 00:48:56;;;;;;;13.10;2.60;;;;;;;14.72;70.65;101343.38;106111;1276;22761;-72
2022/08/10 00:51:28;;;;;;;9.90;2.40;;;;;;;14.74;70.81;101344.31;106180;1274;22556;-71
2022/08/10 00:53:59;;;;;;;10.80;1.90;;;;;;;14.76;70.71;101339.92;106185;1275;22539;-71
2022/08/10 00:56:30;;;;;;;6.80;2.10;;;;;;;14.78;70.93;101341.63;106090;1275;22569;-72
2022/08/10 00:59:02;;;;;;;9.80;1.80;;;;;;;14.78;70.98;101338.78;106123;1275;24985;-72
2022/08/10 01:01:33;;;;;;;11.70;2.10;;;;;;;14.78;71.03;101338.07;106089;1274;25244;-72
2022/08/10 01:04:06;;;;;;;8.10;2.20;;;;;;;14.78;71.26;101339.34;106097;1274;26070;-72
2022/08/10 01:06:47;;;;;;;13.00;2.40;;;;;;;14.78;71.29;101336.28;106116;1275;23173;-73
2022/08/10 01:09:27;;;;;;;8.70;1.80;;;;;;;14.79;71.58;101338.84;106123;1274;25606;-73
2022/08/10 01:12:08;;;;;;;9.20;2.40;;;;;;;14.79;71.73;101334.65;106071;1274;24374;-72
2022/08/10 01:14:46;;;;;;;6.60;1.90;;;;;;;14.79;71.70;101337.68;106156;1274;24396;-72
2022/08/10 01:17:25;;;;;;;7.50;1.90;;;;;;;14.80;71.84;101341.67;106161;1274;22531;-72
2022/08/10 01:20:06;;;;;;;7.70;1.90;;;;;;;14.80;71.93;101345.05;106092;1274;22573;-72
2022/08/10 01:23:09;;;;;;;10.00;2.30;;;;;;;14.80;71.97;101349.85;106128;1273;22553;-72
2022/08/10 01:25:50;;;;;;;11.80;2.70;;;;;;;14.82;72.11;101348.40;106093;1273;26538;-72
2022/08/10 01:28:38;;;;;;;10.40;2.20;;;;;;;14.82;72.08;101350.15;106241;1273;22624;-72
2022/08/10 01:31:13;;;;;;;9.50;2.20;;;;;;;14.80;72.16;101346.02;106134;1273;22565;-71
2022/08/10 01:33:52;;;;;;;8.50;2.10;;;;;;;14.78;71.95;101348.95;106094;1274;25343;-72
2022/08/10 01:36:29;;;;;;;9.80;2.50;;;;;;;14.75;72.00;101347.05;106162;1273;22551;-72
2022/08/10 01:39:04;;;;;;;8.80;2.40;;;;;;;14.71;72.19;101341.14;106211;1275;24274;-72
2022/08/10 01:41:46;;;;;;;9.60;2.60;;;;;;;14.67;72.26;101343.78;106194;1274;24344;-72
2022/08/10 01:44:24;;;;;;;15.70;2.60;;;;;;;14.63;72.15;101341.76;106182;1275;22605;-72
2022/08/10 01:48:27;;;;;;;8.00;2.50;;;;;;;14.58;72.25;101342.64;106071;1274;22592;-72
2022/08/10 01:49:55;;;;;;;9.70;2.00;;;;;;;14.53;72.09;101339.84;106051;1274;22544;-72
2022/08/10 01:52:30;;;;;;;7.90;2.00;;;;;;;14.49;72.07;101341.36;105993;1274;22541;-72
2022/08/10 01:55:01;;;;;;;14.40;2.70;;;;;;;14.45;72.12;101344.66;106216;1274;24643;-72
2022/08/10 01:57:34;;;;;;;8.40;2.20;;;;;;;14.41;72.18;101343.66;106164;1273;25368;-73
2022/08/10 02:00:08;;;;;;;12.00;2.70;;;;;;;14.36;72.18;101343.45;106136;1274;24293;-71
2022/08/10 02:02:41;;;;;;;9.50;2.40;;;;;;;14.29;72.38;101342.52;106345;1273;23401;-73
2022/08/10 02:05:14;;;;;;;8.40;2.50;;;;;;;14.24;72.37;101342.45;106203;1275;25601;-72
2022/08/10 02:07:47;;;;;;;7.80;2.30;;;;;;;14.19;72.58;101344.05;106189;1274;22556;-72
2022/08/10 02:10:21;;;;;;;8.20;1.90;;;;;;;14.14;72.63;101341.56;106090;1275;22547;-72
2022/08/10 02:12:56;;;;;;;10.60;3.00;;;;;;;14.11;72.52;101342.40;106153;1273;22663;-72
2022/08/10 02:15:32;;;;;;;8.10;2.20;;;;;;;14.06;72.26;101338.94;106397;1274;23780;-71
2022/08/10 02:18:06;;;;;;;10.60;3.20;;;;;;;14.02;72.44;101338.94;106115;1273;26688;-73
2022/08/10 02:20:41;;;;;;;11.60;2.60;;;;;;;13.98;72.88;101339.35;106160;1273;25242;-72
2022/08/10 02:23:17;;;;;;;10.30;2.70;;;;;;;13.93;73.00;101336.39;106203;1273;24394;-72
2022/08/10 02:25:50;;;;;;;9.40;2.80;;;;;;;13.88;73.10;101333.77;106212;1274;24417;-71
2022/08/10 02:28:24;;;;;;;13.70;3.10;;;;;;;13.84;73.31;101338.13;106220;1274;25516;-72
2022/08/10 02:30:58;;;;;;;10.80;2.70;;;;;;;13.82;73.60;101334.52;106064;1274;22545;-71
2022/08/10 02:33:30;;;;;;;12.70;3.10;;;;;;;13.79;74.12;101338.58;106223;1275;22537;-72
2022/08/10 02:36:03;;;;;;;10.40;3.00;;;;;;;13.78;74.29;101334.23;106377;1273;22614;-72
2022/08/10 02:38:45;;;;;;;9.80;2.70;;;;;;;13.78;74.04;101336.95;106269;1273;25238;-72
2022/08/10 02:41:21;;;;;;;13.70;2.90;;;;;;;13.76;73.86;101336.10;106199;1273;22623;-72
2022/08/10 02:43:55;;;;;;;10.00;2.60;;;;;;;13.71;73.92;101338.90;106194;1274;22554;-72
2022/08/10 02:46:35;;;;;;;9.60;2.60;;;;;;;13.67;74.11;101337.73;106121;1274;24682;-72
2022/08/10 02:49:08;;;;;;;12.10;2.80;;;;;;;13.62;74.47;101340.14;106128;1274;25329;-72
2022/08/10 02:51:45;;;;;;;10.80;2.60;;;;;;;13.57;74.36;101340.45;106146;1274;22613;-73
2022/08/10 02:54:21;;;;;;;9.40;2.60;;;;;;;13.52;74.18;101342.14;106167;1274;22585;-71
2022/08/10 02:57:03;;;;;;;9.00;3.00;;;;;;;13.48;74.16;101339.76;106245;1274;22698;-72
2022/08/10 02:59:40;;;;;;;8.70;2.30;;;;;;;13.43;74.20;101339.84;106191;1275;22630;-71
2022/08/10 03:02:16;;;;;;;6.90;2.30;;;;;;;13.39;74.18;101340.44;106101;1276;22569;-72
2022/08/10 03:04:53;;;;;;;9.70;3.10;;;;;;;13.36;74.16;101341.14;106090;1274;24291;-71
2022/08/10 03:07:28;;;;;;;12.80;2.70;;;;;;;13.32;74.34;101341.34;106252;1274;24348;-72
2022/08/10 03:10:01;;;;;;;12.90;3.40;;;;;;;13.28;74.33;101339.10;106121;1274;22553;-72
2022/08/10 03:12:35;;;;;;;9.90;3.00;;;;;;;13.25;74.33;101337.74;106187;1275;25313;-71
2022/08/10 03:15:10;;;;;;;10.80;3.70;;;;;;;13.21;74.40;101340.40;106182;1274;24326;-72
2022/08/10 03:17:43;;;;;;;13.10;5.10;;;;;;;13.18;74.22;101338.73;106240;1274;22533;-71
2022/08/10 03:20:18;;;;;;;14.50;5.70;;;;;;;13.13;74.35;101338.77;106145;1274;25573;-72
2022/08/10 03:22:51;;;;;;;14.10;5.30;;;;;;;13.09;74.51;101342.94;106008;1274;22531;-72
2022/08/10 03:25:25;;;;;;;14.30;6.00;;;;;;;13.07;74.46;101344.52;106277;1274;23268;-71
2022/08/10 03:27:58;;;;;;;14.30;7.20;;;;;;;13.02;74.62;101343.30;106129;1274;25344;-71
2022/08/10 03:30:30;;;;;;;16.50;7.60;;;;;;;13.00;74.72;101341.65;106154;1274;25355;-71
2022/08/10 03:33:02;;;;;;;19.50;8.80;;;;;;;12.97;74.67;101343.14;106274;1274;22582;-72
2022/08/10 03:35:34;;;;;;;18.30;8.50;;;;;;;12.94;74.67;101343.44;106162;1274;22601;-72
2022/08/10 03:38:05;;;;;;;21.40;10.70;;;;;;;12.91;74.97;101346.30;106244;1275;22538;-72
2022/08/10 03:40:39;;;;;;;21.70;11.40;;;;;;;12.88;75.07;101347.48;106170;1275;22551;-72
2022/08/10 03:43:13;;;;;;;15.30;7.50;;;;;;;12.87;75.41;101352.81;106156;1277;22803;-71
2022/08/10 03:45:48;;;;;;;15.00;7.00;;;;;;;12.87;76.38;101351.20;106132;1274;25570;-71
2022/08/10 03:48:22;;;;;;;12.60;5.20;;;;;;;12.87;76.14;101359.79;106210;1274;23028;-71
2022/08/10 03:50:54;;;;;;;7.50;1.80;;;;;;;12.85;76.10;101359.16;106129;1274;22813;-72
2022/08/10 03:53:26;;;;;;;6.60;1.50;;;;;;;12.82;76.26;101359.30;106069;1274;22602;-72
2022/08/10 03:55:57;;;;;;;8.30;2.00;;;;;;;12.80;76.50;101360.01;106119;1274;24373;-72
2022/08/10 03:58:28;;;;;;;6.80;2.00;;;;;;;12.79;76.46;101359.52;106132;1274;24274;-72
2022/08/10 04:01:01;;;;;;;8.90;2.20;;;;;;;12.76;76.51;101361.48;106207;1274;25241;-71
2022/08/10 04:03:32;;;;;;;5.80;1.90;;;;;;;12.72;76.58;101365.15;106302;1274;25371;-72
2022/08/10 04:06:03;;;;;;;7.60;2.40;;;;;;;12.70;76.65;101368.14;106165;1274;22541;-73
2022/08/10 04:08:34;;;;;;;7.50;2.10;;;;;;;12.69;76.63;101367.33;106136;1274;25232;-72
2022/08/10 04:11:05;;;;;;;9.50;2.40;;;;;;;12.67;76.83;101365.62;106089;1273;22556;-72
2022/08/10 04:13:37;;;;;;;13.20;2.80;;;;;;;12.67;76.87;101365.64;106215;1274;22616;-72
2022/08/10 04:16:09;;;;;;;12.90;3.30;;;;;;;12.68;76.95;101368.42;106190;1275;22550;-72
2022/08/10 04:18:41;;;;;;;9.10;2.70;;;;;;;12.69;77.03;101369.17;106186;1274;23310;-72
2022/08/10 04:21:15;;;;;;;14.90;3.90;;;;;;;12.70;77.12;101366.52;106153;1274;22531;-73
2022/08/10 04:23:49;;;;;;;11.50;3.30;;;;;;;12.73;77.26;101363.63;106147;1274;22767;-72
2022/08/10 04:26:21;;;;;;;11.20;4.00;;;;;;;12.75;77.15;101371.29;106075;1274;22556;-72
2022/08/10 04:28:53;;;;;;;12.30;3.90;;;;;;;12.78;77.49;101367.61;106307;1274;25421;-72
2022/08/10 04:31:28;;;;;;;12.50;3.90;;;;;;;12.83;77.68;101364.06;106144;1274;23976;-74
2022/08/10 04:34:01;;;;;;;16.20;4.40;;;;;;;12.88;77.54;101364.23;106226;1274;22591;-71
2022/08/10 04:36:34;;;;;;;14.00;4.60;;;;;;;12.93;77.85;101368.06;106301;1274;22782;-72
2022/08/10 04:39:06;;;;;;;13.30;4.10;;;;;;;12.98;77.99;101368.33;106100;1274;22534;-72
2022/08/10 04:41:38;;;;;;;16.70;4.50;;;;;;;13.04;78.17;101371.50;106149;1273;24281;-72
2022/08/10 04:44:09;;;;;;;11.90;4.40;;;;;;;13.12;78.37;101372.73;106162;1274;23090;-72
2022/08/10 04:46:41;;;;;;;15.80;5.40;;;;;;;13.18;78.20;101375.95;106197;1274;22608;-72
2022/08/10 04:49:12;;;;;;;14.70;5.20;;;;;;;13.26;78.61;101378.80;106851;1265;23990;-79
2022/08/10 04:51:43;;;;;;;17.10;5.70;;;;;;;13.33;78.30;101380.95;106511;1274;25381;-79
2022/08/10 04:54:15;;;;;;;15.80;5.10;;;;;;;13.41;78.84;101382.08;106489;1274;24210;-79
2022/08/10 04:56:46;;;;;;;13.00;5.20;;;;;;;13.49;78.94;101382.20;106478;1275;25381;-79
2022/08/10 04:59:18;;;;;;;21.50;6.40;;;;;;;13.56;79.08;101381.06;106593;1275;25393;-79
2022/08/10 05:01:49;;;;;;;18.20;6.10;;;;;;;13.64;79.35;101383.33;106862;1273;22591;-81
2022/08/10 05:04:20;;;;;;;14.40;4.50;;;;;;;13.74;79.13;101385.90;106843;1273;22479;-80
2022/08/10 05:06:51;;;;;;;17.10;5.40;;;;;;;13.82;79.21;101390.23;107052;1274;24245;-80
2022/08/10 05:09:22;;;;;;;16.00;5.30;;;;;;;13.92;79.47;101389.08;106921;1273;23972;-79
2022/08/10 05:11:53;;;;;;;15.00;5.30;;;;;;;14.00;79.33;101393.83;106859;1274;26640;-80
2022/08/10 05:14:25;;;;;;;17.20;4.80;;;;;;;14.08;79.48;101398.35;106579;1274;24127;-79
2022/08/10 05:16:57;;;;;;;15.60;4.60;;;;;;;14.18;79.53;101395.80;106638;1273;22561;-79
2022/08/10 05:19:28;;;;;;;18.00;5.40;;;;;;;14.27;79.59;101402.48;106614;1273;22550;-79
2022/08/10 05:21:59;;;;;;;12.40;4.40;;;;;;;14.37;79.85;101406.40;106560;1274;25534;-79
2022/08/10 05:24:30;;;;;;;13.30;4.20;;;;;;;14.46;79.81;101408.63;106679;1273;25424;-79
2022/08/10 05:27:01;;;;;;;13.70;3.80;;;;;;;14.54;79.51;101408.10;106684;1273;22724;-80
2022/08/10 05:29:33;;;;;;;13.90;4.00;;;;;;;14.64;79.00;101403.85;106559;1273;22537;-79
2022/08/10 05:32:05;;;;;;;11.20;3.20;;;;;;;14.73;78.82;101403.88;106790;1273;22562;-80
2022/08/10 05:34:36;;;;;;;8.80;3.40;;;;;;;14.82;78.63;101403.65;106891;1274;25218;-80
2022/08/10 05:37:08;;;;;;;11.40;3.00;;;;;;;14.97;78.71;101405.41;107181;1273;22528;-81
2022/08/10 05:39:42;;;;;;;11.30;3.10;;;;;;;15.09;78.64;101409.36;107042;1274;22571;-80
2022/08/10 05:42:16;;;;;;;11.30;2.90;;;;;;;15.24;78.40;101404.23;107050;1274;25364;-79
2022/08/10 05:44:47;;;;;;;9.20;3.10;;;;;;;15.41;77.96;101411.97;107049;1276;22655;-80
2022/08/10 05:47:19;;;;;;;9.80;2.60;;;;;;;15.53;77.48;101413.77;107112;1273;22550;-80
2022/08/10 05:49:51;;;;;;;12.50;2.70;;;;;;;15.65;77.68;101415.11;107047;1274;22602;-80
2022/08/10 05:52:23;;;;;;;9.90;2.80;;;;;;;15.81;77.20;101415.96;107176;1273;22685;-80
2022/08/10 05:54:54;;;;;;;13.00;2.60;;;;;;;15.95;76.69;101414.34;106824;1274;22476;-80
2022/08/10 05:57:26;;;;;;;10.30;2.70;;;;;;;16.03;76.57;101418.20;106834;1274;23764;-81
2022/08/10 06:00:02;;;;;;;10.10;2.50;;;;;;;16.13;76.67;101413.65;106883;1274;22480;-80
2022/08/10 06:02:38;;;;;;;9.80;2.40;;;;;;;16.28;76.51;101412.59;106923;1274;22639;-81
2022/08/10 06:05:12;;;;;;;9.80;2.90;;;;;;;16.44;76.21;101414.30;106841;1274;25389;-79
2022/08/10 06:07:48;;;;;;;10.70;2.70;;;;;;;16.58;75.86;101417.17;106735;1274;22581;-79
2022/08/10 06:10:21;;;;;;;7.30;2.00;;;;;;;16.69;75.51;101414.42;106810;1273;23904;-79
2022/08/10 06:15:41;;;;;;;9.80;2.50;;;;;;;16.97;74.47;101411.52;106525;1274;24192;-79
2022/08/10 06:18:14;;;;;;;11.20;2.40;;;;;;;17.06;74.59;101409.81;106789;1274;25330;-79
2022/08/10 06:20:47;;;;;;;6.70;2.20;;;;;;;17.16;74.46;101408.50;106531;1274;22569;-79
2022/08/10 06:23:19;;;;;;;8.80;2.10;;;;;;;17.26;73.97;101404.95;106790;1274;22550;-79
2022/08/10 06:25:52;;;;;;;5.60;1.60;;;;;;;17.32;73.73;101407.48;106723;1273;25403;-80
2022/08/10 06:28:25;;;;;;;8.10;1.90;;;;;;;17.41;74.27;101406.04;106745;1274;22669;-80
2022/08/10 06:30:57;;;;;;;10.80;1.90;;;;;;;17.57;73.83;101413.40;106759;1273;22563;-81
2022/08/10 06:33:38;;;;;;;11.50;2.00;;;;;;;17.69;73.74;101414.43;106687;1274;22584;-80
2022/08/10 06:36:12;;;;;;;9.00;2.10;;;;;;;17.80;73.22;101417.55;106831;1274;24235;-80
2022/08/10 06:38:46;;;;;;;6.30;2.20;;;;;;;17.90;73.09;101417.16;106879;1273;22498;-80
2022/08/10 06:41:26;;;;;;;7.00;1.90;;;;;;;18.00;72.60;101413.34;106773;1274;23819;-80
2022/08/10 06:44:04;;;;;;;10.10;2.20;;;;;;;18.09;72.19;101418.49;106618;1274;21947;-80
2022/08/10 06:46:40;;;;;;;9.00;2.10;;;;;;;18.17;71.82;101417.58;106679;1274;23810;-80
2022/08/10 06:49:13;;;;;;;8.50;1.80;;;;;;;18.20;71.81;101421.40;106807;1274;22720;-79
2022/08/10 06:51:47;;;;;;;16.60;2.90;;;;;;;18.29;71.84;101420.64;106722;1274;22906;-80
2022/08/10 06:54:22;;;;;;;10.50;2.10;;;;;;;18.40;71.25;101417.83;106563;1274;25270;-79
2022/08/10 06:56:55;;;;;;;7.70;2.00;;;;;;;18.43;71.17;101415.40;106657;1274;23010;-80
2022/08/10 06:59:36;;;;;;;9.20;1.70;;;;;;;18.52;71.27;101417.66;106694;1273;25366;-80
2022/08/10 07:02:11;;;;;;;10.20;2.20;;;;;;;18.62;70.55;101418.69;106724;1274;26492;-80
2022/08/10 07:04:48;;;;;;;9.40;2.10;;;;;;;18.65;70.17;101421.33;106838;1274;25881;-80
2022/08/10 07:07:24;;;;;;;10.80;2.00;;;;;;;18.70;70.01;101417.04;106894;1274;23027;-81
2022/08/10 07:09:56;;;;;;;7.90;1.90;;;;;;;18.77;69.55;101417.02;106786;1274;22630;-81
2022/08/10 07:12:29;;;;;;;7.20;1.60;;;;;;;18.80;69.18;101411.92;107122;1274;23041;-81
2022/08/10 07:15:01;;;;;;;6.80;1.70;;;;;;;18.86;69.05;101413.14;107043;1274;22628;-80
2022/08/10 07:17:36;;;;;;;7.70;1.90;;;;;;;18.93;68.49;101416.66;107139;1275;22691;-80
2022/08/10 07:20:10;;;;;;;8.80;1.70;;;;;;;18.98;68.64;101414.11;107066;1274;23403;-79
2022/08/10 07:22:43;;;;;;;7.60;1.50;;;;;;;19.07;68.47;101414.14;106930;1273;22532;-80
2022/08/10 07:25:19;;;;;;;7.60;1.50;;;;;;;19.15;68.29;101417.60;106900;1274;25388;-79
2022/08/10 07:27:52;;;;;;;8.90;2.00;;;;;;;19.27;68.53;101413.27;106663;1274;23951;-80
2022/08/10 07:30:27;;;;;;;8.60;1.70;;;;;;;19.40;68.32;101414.97;106625;1272;22543;-80
2022/08/10 07:32:59;;;;;;;7.70;1.50;;;;;;;19.53;67.71;101414.98;106809;1274;22578;-81
2022/08/10 07:35:32;;;;;;;10.30;1.60;;;;;;;19.61;67.02;101416.95;106842;1274;22567;-80
2022/08/10 07:38:07;;;;;;;6.50;1.40;;;;;;;19.67;66.79;101417.48;106772;1274;22707;-80
2022/08/10 07:40:42;;;;;;;9.60;1.40;;;;;;;19.76;66.34;101415.30;106684;1274;25560;-80
2022/08/10 07:43:16;;;;;;;6.20;1.50;;;;;;;19.82;66.33;101418.28;106758;1273;22569;-79
2022/08/10 07:45:49;;;;;;;9.80;2.70;;;;;;;19.89;65.83;101413.30;106590;1274;23921;-80
2022/08/10 07:48:25;;;;;;;7.10;1.40;;;;;;;19.95;65.43;101414.02;106992;1274;22534;-80
2022/08/10 07:51:00;;;;;;;6.10;1.30;;;;;;;20.05;65.44;101410.75;106771;1274;22614;-80
2022/08/10 07:53:37;;;;;;;6.20;1.50;;;;;;;20.17;64.86;101414.52;106663;1274;22554;-79
2022/08/10 07:56:11;;;;;;;7.70;1.50;;;;;;;20.23;64.31;101413.27;106834;1273;22549;-81
2022/08/10 07:58:49;;;;;;;5.80;1.30;;;;;;;20.29;64.27;101413.95;107169;1274;22601;-80
2022/08/10 08:01:28;;;;;;;7.30;1.30;;;;;;;20.36;63.96;101412.33;106717;1274;22541;-81
2022/08/10 08:04:03;;;;;;;4.10;1.20;;;;;;;20.44;63.36;101408.49;106880;1274;25375;-80
2022/08/10 08:06:37;;;;;;;7.50;1.40;;;;;;;20.49;63.42;101409.46;107170;1274;25377;-79
2022/08/10 08:09:09;;;;;;;9.00;1.40;;;;;;;20.55;63.19;101409.79;107192;1274;22734;-80
2022/08/10 08:11:44;;;;;;;8.20;1.50;;;;;;;20.63;63.10;101408.23;106723;1274;22703;-79
2022/08/10 08:14:18;;;;;;;7.10;1.50;;;;;;;20.71;62.55;101406.50;106841;1273;22590;-80
2022/08/10 08:16:54;;;;;;;6.10;1.20;;;;;;;20.77;62.35;101408.73;106994;1274;24498;-80
2022/08/10 08:19:27;;;;;;;6.80;1.50;;;;;;;20.87;62.33;101407.20;106680;1274;25382;-80
2022/08/10 08:22:02;;;;;;;7.50;1.30;;;;;;;20.96;62.25;101404.02;107178;1273;22650;-81
2022/08/10 08:24:37;;;;;;;5.40;1.10;;;;;;;21.09;61.93;101401.48;107122;1274;25942;-80
2022/08/10 08:27:10;;;;;;;7.70;1.60;;;;;;;21.18;61.33;101402.84;106616;1274;22536;-80
2022/08/10 08:29:45;;;;;;;10.30;1.90;;;;;;;21.26;60.99;101395.04;107055;1274;25326;-80
2022/08/10 08:32:21;;;;;;;7.40;1.60;;;;;;;21.33;60.67;101399.42;106845;1273;24212;-80
2022/08/10 08:34:57;;;;;;;4.50;1.20;;;;;;;21.40;59.94;101395.98;106689;1273;24955;-80
2022/08/10 08:37:33;;;;;;;5.10;1.20;;;;;;;21.46;59.59;101395.11;106996;1274;26117;-80
2022/08/10 08:40:08;;;;;;;5.40;1.30;;;;;;;21.54;59.27;101397.93;106873;1273;24310;-80
2022/08/10 08:43:09;;;;;;;6.00;1.00;;;;;;;21.62;59.33;101399.67;106754;1273;25258;-80
2022/08/10 08:45:57;;;;;;;5.00;1.30;;;;;;;21.76;59.15;101399.63;106643;1274;22542;-80
2022/08/10 08:49:08;;;;;;;8.60;1.30;;;;;;;21.89;58.44;101392.77;106665;1273;25584;-79
2022/08/10 08:51:49;;;;;;;4.80;1.00;;;;;;;22.02;58.12;101393.33;106648;1274;23063;-79
2022/08/10 08:54:40;;;;;;;7.30;1.30;;;;;;;22.10;57.05;101391.59;106640;1273;22541;-78
2022/08/10 08:57:23;;;;;;;7.20;1.80;;;;;;;22.18;57.31;101389.19;106669;1273;22581;-79
2022/08/10 09:00:05;;;;;;;6.10;1.10;;;;;;;22.24;56.05;101393.88;106596;1273;22496;-79
2022/08/10 09:02:54;;;;;;;9.40;1.50;;;;;;;22.29;56.24;101389.12;106570;1273;25376;-78
2022/08/10 09:05:38;;;;;;;2.90;0.90;;;;;;;22.42;56.16;101388.61;106644;1273;22588;-79
2022/08/10 09:08:26;;;;;;;6.00;1.20;;;;;;;22.50;54.61;101387.50;106466;1275;22800;-79
2022/08/10 09:11:02;;;;;;;5.60;0.90;;;;;;;22.52;54.22;101383.56;106563;1273;25277;-78
2022/08/10 09:13:44;;;;;;;6.20;0.90;;;;;;;22.58;54.07;101382.44;106567;1273;22487;-79
2022/08/10 09:16:26;;;;;;;4.80;1.10;;;;;;;22.64;53.68;101380.94;106513;1273;22581;-78
2022/08/10 09:19:06;;;;;;;7.70;0.90;;;;;;;22.72;53.17;101382.08;106451;1273;24240;-79
2022/08/10 09:21:47;;;;;;;6.10;1.10;;;;;;;22.80;52.97;101382.75;106685;1273;25267;-78
2022/08/10 09:24:29;;;;;;;3.20;0.80;;;;;;;22.86;52.90;101387.53;106570;1273;25372;-78
2022/08/10 09:27:09;;;;;;;5.70;1.60;;;;;;;22.87;52.52;101387.30;106438;1274;22571;-78
2022/08/10 09:29:47;;;;;;;4.70;0.90;;;;;;;22.90;50.74;101387.85;106529;1273;22777;-79
2022/08/10 09:32:32;;;;;;;3.20;0.70;;;;;;;22.91;50.09;101384.66;106618;1273;25253;-78
2022/08/10 09:35:11;;;;;;;4.00;0.70;;;;;;;22.95;50.19;101379.38;106474;1274;22781;-78
2022/08/10 09:37:48;;;;;;;3.00;0.80;;;;;;;22.98;50.14;101381.20;106617;1273;22638;-78
2022/08/10 09:40:27;;;;;;;5.40;0.70;;;;;;;23.04;49.96;101382.15;106570;1273;25371;-79
2022/08/10 09:43:09;;;;;;;4.90;0.90;;;;;;;23.13;49.49;101375.23;106551;1273;22545;-78
2022/08/10 09:45:53;;;;;;;2.90;0.70;;;;;;;23.21;49.16;101378.55;106657;1273;22593;-79
2022/08/10 09:48:33;;;;;;;4.40;0.90;;;;;;;23.26;48.50;101375.52;106428;1274;25271;-79
2022/08/10 09:51:13;;;;;;;3.90;1.00;;;;;;;23.30;48.12;101372.60;106566;1273;22611;-78
2022/08/10 09:53:56;;;;;;;5.30;0.90;;;;;;;23.32;47.93;101374.52;106710;1273;22538;-79
2022/08/10 09:56:36;;;;;;;3.70;0.80;;;;;;;23.36;48.47;101374.25;106542;1273;25261;-78
2022/08/10 09:59:11;;;;;;;;;;;;;;;23.42;47.87;101367.12;106540;1273;25206;-78
2022/08/10 10:01:51;;;;;;;3.30;0.90;;;;;;;23.48;47.74;101362.66;106432;1273;25672;-78
2022/08/10 10:04:33;;;;;;;5.30;0.80;;;;;;;23.56;47.37;101359.27;106455;1274;24090;-78
2022/08/10 10:07:09;;;;;;;4.50;1.00;;;;;;;23.62;46.52;101359.59;106585;1273;22550;-79
2022/08/10 10:09:48;;;;;;;3.40;0.80;;;;;;;23.60;46.60;101355.38;106555;1273;22479;-79
2022/08/10 10:12:26;;;;;;;3.80;0.90;;;;;;;23.66;46.62;101352.95;106581;1273;25915;-78
2022/08/10 10:15:21;;;;;;;3.40;0.90;;;;;;;23.71;46.07;101357.98;106474;1274;25267;-78
2022/08/10 10:18:14;;;;;;;4.70;0.80;;;;;;;23.74;45.96;101356.58;106638;1273;22672;-78
2022/08/10 10:20:54;;;;;;;3.20;0.80;;;;;;;23.81;45.66;101353.75;106547;1273;23321;-78
2022/08/10 10:23:38;;;;;;;3.80;0.70;;;;;;;23.84;45.82;101347.80;106570;1273;22562;-78
2022/08/10 10:26:19;;;;;;;3.80;0.80;;;;;;;23.89;45.03;101347.45;106478;1274;24389;-78
2022/08/10 10:29:11;;;;;;;6.90;0.70;;;;;;;23.90;45.26;101344.37;106386;1274;22545;-79
2022/08/10 10:31:52;;;;;;;3.50;0.80;;;;;;;23.97;44.65;101335.58;106612;1273;24241;-77
2022/08/10 10:34:34;;;;;;;4.60;1.10;;;;;;;24.06;44.58;101335.17;106553;1273;22544;-78
2022/08/10 10:37:10;;;;;;;3.10;0.70;;;;;;;24.11;43.40;101334.73;106552;1272;22539;-79
2022/08/10 10:39:49;;;;;;;4.40;0.60;;;;;;;24.12;43.83;101335.13;106698;1273;22544;-78
2022/08/10 10:42:31;;;;;;;2.10;0.60;;;;;;;24.09;43.33;101333.36;106551;1272;22493;-79
2022/08/10 10:45:15;;;;;;;2.00;0.60;;;;;;;24.11;43.21;101326.73;106614;1272;22726;-78
2022/08/10 10:48:09;;;;;;;3.20;0.60;;;;;;;24.19;42.74;101325.44;106546;1273;22540;-79
2022/08/10 10:51:03;;;;;;;5.00;0.70;;;;;;;24.21;41.98;101320.67;106645;1273;22570;-78
2022/08/10 10:53:40;;;;;;;3.50;0.70;;;;;;;24.18;42.30;101325.63;106484;1273;22543;-78
2022/08/10 10:56:24;;;;;;;2.10;0.50;;;;;;;24.14;42.17;101329.02;106534;1273;25293;-78
2022/08/10 10:59:04;;;;;;;3.20;0.70;;;;;;;24.13;42.09;101325.92;106675;1273;25098;-79
2022/08/10 11:01:47;;;;;;;1.90;0.60;;;;;;;24.18;42.02;101321.31;106593;1273;22570;-78
2022/08/10 11:04:24;;;;;;;2.50;0.60;;;;;;;24.22;41.98;101320.05;106419;1273;22620;-78
2022/08/10 11:07:09;;;;;;;9.50;0.80;;;;;;;24.23;41.66;101317.02;106498;1273;25387;-78
2022/08/10 11:09:45;;;;;;;3.80;0.70;;;;;;;24.26;41.90;101316.52;106659;1273;22531;-79
2022/08/10 11:12:22;;;;;;;7.30;0.60;;;;;;;24.29;41.98;101316.77;106546;1273;24182;-78
2022/08/10 11:15:02;;;;;;;5.10;0.90;;;;;;;24.30;41.77;101315.40;106448;1274;25261;-79
2022/08/10 11:17:39;;;;;;;5.10;0.80;;;;;;;24.30;41.80;101316.13;106573;1272;25256;-78
2022/08/10 11:20:16;;;;;;;2.20;0.70;;;;;;;24.31;41.76;101315.95;106409;1274;22550;-79
2022/08/10 11:22:57;;;;;;;4.20;0.70;;;;;;;24.30;41.48;101311.88;106485;1272;22480;-79
2022/08/10 11:25:31;;;;;;;5.50;0.80;;;;;;;24.32;41.73;101312.99;106582;1273;23872;-79
2022/08/10 11:28:13;;;;;;;3.60;0.70;;;;;;;24.34;41.51;101307.17;106591;1273;22560;-79
2022/08/10 11:30:52;;;;;;;3.50;0.60;;;;;;;24.40;41.69;101307.48;106402;1274;23980;-78
2022/08/10 11:33:38;;;;;;;4.10;0.70;;;;;;;24.44;41.56;101304.02;106518;1273;22555;-78
2022/08/10 11:36:16;;;;;;;3.10;0.80;;;;;;;24.44;41.35;101305.73;106610;1273;22490;-78
2022/08/10 11:39:09;;;;;;;3.90;0.90;;;;;;;24.41;41.38;101309.73;106486;1273;24213;-78
2022/08/10 11:41:53;;;;;;;6.10;0.70;;;;;;;24.40;41.63;101309.86;106613;1273;24216;-78
2022/08/10 11:44:31;;;;;;;6.00;1.00;;;;;;;24.41;41.72;101307.15;106576;1273;22768;-77
2022/08/10 11:47:06;;;;;;;3.20;0.70;;;;;;;24.46;41.79;101307.97;106558;1273;22570;-77
2022/08/10 11:49:45;;;;;;;4.00;0.90;;;;;;;24.54;41.41;101300.89;106532;1273;26164;-78
2022/08/10 11:52:27;;;;;;;3.40;0.70;;;;;;;24.59;41.63;101304.23;106413;1274;22555;-77
2022/08/10 11:55:09;;;;;;;2.80;0.50;;;;;;;24.65;40.83;101296.95;106307;1274;22583;-78
2022/08/10 11:57:42;;;;;;;4.70;0.80;;;;;;;24.68;40.51;101294.55;106496;1273;23869;-79